Time;durP1;ratioP1;P1;durP2;ratioP2;P2;SDS_P1;SDS_P2;PMS_P1;PMS_P2;Temp;Humidity;BMP_temperature;BMP_pressure;BME280_temperature;BME280_humidity;BME280_pressure;Samples;Min_cycle;Max_cycle;Signal;HPM_P1;HPM_P2
2021/11/13 00:01:55;;;;;;;11.50;8.70;;;3.30;99.90;;;;;;5034097;28;20182;-67
2021/11/13 00:04:20;;;;;;;16.03;11.70;;;3.40;99.90;;;;;;5034071;28;20178;-64
2021/11/13 00:06:46;;;;;;;10.97;7.77;;;3.30;99.90;;;;;;5033826;28;20542;-68
2021/11/13 00:09:14;;;;;;;14.53;10.17;;;3.30;99.90;;;;;;5016315;28;20201;-66
2021/11/13 00:11:40;;;;;;;15.70;8.20;;;3.20;99.90;;;;;;5033985;28;20197;-66
2021/11/13 00:14:06;;;;;;;13.38;10.63;;;3.10;99.90;;;;;;5033991;28;20166;-65
2021/11/13 00:16:33;;;;;;;24.40;10.03;;;3.10;99.90;;;;;;5033542;28;20190;-66
2021/11/13 00:18:59;;;;;;;9.85;8.73;;;3.10;99.90;;;;;;5033652;28;20525;-64
2021/11/13 00:21:27;;;;;;;17.40;10.97;;;3.10;99.90;;;;;;5033992;28;20595;-66
2021/11/13 00:23:53;;;;;;;14.73;12.80;;;3.10;99.90;;;;;;5033338;28;20413;-66
2021/11/13 00:26:19;;;;;;;11.43;10.03;;;3.10;99.90;;;;;;5033283;28;20271;-65
2021/11/13 00:28:44;;;;;;;12.83;9.43;;;3.10;99.90;;;;;;5033649;28;20186;-66
2021/11/13 00:31:12;;;;;;;20.17;11.10;;;3.10;99.90;;;;;;5033733;28;20198;-65
2021/11/13 00:33:38;;;;;;;12.00;9.30;;;3.10;99.90;;;;;;5033623;28;20189;-66
2021/11/13 00:36:04;;;;;;;16.43;9.33;;;3.00;99.90;;;;;;5034248;28;20205;-65
2021/11/13 00:38:30;;;;;;;15.07;11.07;;;3.10;99.90;;;;;;5031856;28;20198;-67
2021/11/13 00:40:56;;;;;;;10.57;9.20;;;3.10;99.90;;;;;;5033530;28;20417;-64
2021/11/13 00:43:22;;;;;;;13.32;11.57;;;3.10;99.90;;;;;;5033677;28;20566;-67
2021/11/13 00:45:47;;;;;;;8.37;7.30;;;3.10;99.90;;;;;;5033225;28;20210;-65
2021/11/13 00:48:13;;;;;;;14.70;9.30;;;3.20;99.90;;;;;;5033229;28;20471;-68
2021/11/13 00:50:40;;;;;;;9.87;8.80;;;3.20;99.90;;;;;;5033453;28;20405;-67
2021/11/13 00:53:06;;;;;;;13.68;9.65;;;3.20;99.90;;;;;;5033430;28;20582;-67
2021/11/13 00:55:32;;;;;;;21.60;10.85;;;3.10;99.90;;;;;;5033519;28;20182;-70
2021/11/13 00:57:57;;;;;;;12.55;9.57;;;3.20;99.90;;;;;;5032751;28;20201;-65
2021/11/13 01:00:24;;;;;;;12.87;11.10;;;3.20;99.90;;;;;;5033426;28;20185;-66
2021/11/13 01:02:52;;;;;;;20.85;9.73;;;3.20;99.90;;;;;;5033174;28;20174;-64
2021/11/13 01:05:18;;;;;;;13.25;11.30;;;3.20;99.90;;;;;;5033131;28;20292;-67
2021/11/13 01:07:45;;;;;;;12.95;10.30;;;3.20;99.90;;;;;;5032907;28;20189;-64
2021/11/13 01:10:12;;;;;;;15.30;10.88;;;3.20;99.90;;;;;;5033235;28;20170;-66
2021/11/13 01:12:38;;;;;;;19.30;11.30;;;3.30;99.90;;;;;;5033122;28;20254;-68
2021/11/13 01:15:07;;;;;;;14.85;9.20;;;3.30;99.90;;;;;;5033126;28;20507;-69
2021/11/13 01:17:33;;;;;;;11.82;10.23;;;3.20;99.90;;;;;;5032698;28;20172;-69
2021/11/13 01:19:59;;;;;;;13.93;10.20;;;3.20;99.90;;;;;;5033288;28;20253;-66
2021/11/13 01:22:25;;;;;;;16.30;12.50;;;3.20;99.90;;;;;;5033029;28;20404;-68
2021/11/13 01:24:51;;;;;;;9.80;8.10;;;3.20;99.90;;;;;;5033282;28;20546;-65
2021/11/13 01:27:17;;;;;;;10.35;8.32;;;3.10;99.90;;;;;;5032392;28;20266;-67
2021/11/13 01:29:42;;;;;;;15.87;11.80;;;3.10;99.90;;;;;;5032953;28;20598;-69
2021/11/13 01:32:09;;;;;;;16.10;10.37;;;3.10;99.90;;;;;;5033193;28;20427;-69
2021/11/13 01:34:34;;;;;;;18.25;10.73;;;3.10;99.90;;;;;;5033194;28;20173;-65
2021/11/13 01:37:00;;;;;;;12.07;9.87;;;3.10;99.90;;;;;;5036697;28;20231;-69
2021/11/13 01:39:26;;;;;;;12.60;9.27;;;3.10;99.90;;;;;;5035658;28;20436;-67
2021/11/13 01:41:55;;;;;;;12.03;10.00;;;3.00;99.90;;;;;;5037210;28;20765;-68
2021/11/13 01:44:21;;;;;;;13.70;10.30;;;3.10;99.90;;;;;;5036783;28;20166;-66
2021/11/13 01:46:46;;;;;;;10.23;7.15;;;3.10;99.90;;;;;;5036393;28;20176;-67
2021/11/13 01:49:12;;;;;;;11.20;8.77;;;3.10;99.90;;;;;;5036794;28;20190;-65
2021/11/13 01:51:38;;;;;;;11.33;8.37;;;3.10;99.90;;;;;;5036769;28;20232;-69
2021/11/13 01:54:06;;;;;;;9.15;7.75;;;3.10;99.90;;;;;;5035640;28;20478;-65
2021/11/13 01:56:34;;;;;;;17.63;10.52;;;3.10;99.90;;;;;;5038530;28;20194;-66
2021/11/13 01:59:02;;;;;;;8.18;6.43;;;3.10;99.90;;;;;;5044889;28;20209;-67
2021/11/13 02:01:28;;;;;;;12.15;9.32;;;3.10;99.90;;;;;;5047690;28;20208;-65
2021/11/13 02:03:56;;;;;;;11.93;8.87;;;3.20;99.90;;;;;;5047352;28;20170;-66
2021/11/13 02:06:22;;;;;;;21.05;8.65;;;3.10;99.90;;;;;;5046576;28;20464;-66
2021/11/13 02:08:48;;;;;;;13.30;9.83;;;3.10;99.90;;;;;;5050615;28;20539;-66
2021/11/13 02:11:17;;;;;;;13.77;9.20;;;3.20;99.90;;;;;;5045185;28;20241;-65
2021/11/13 02:13:44;;;;;;;11.25;10.02;;;3.20;99.90;;;;;;5048859;28;20174;-66
2021/11/13 02:16:10;;;;;;;13.10;10.60;;;3.20;99.90;;;;;;5042617;28;20277;-65
2021/11/13 02:18:38;;;;;;;13.02;10.30;;;3.20;99.90;;;;;;5036348;28;20209;-66
2021/11/13 02:21:04;;;;;;;13.57;9.82;;;3.20;99.90;;;;;;5036437;28;20174;-67
2021/11/13 02:23:31;;;;;;;12.35;9.07;;;3.20;99.90;;;;;;5036259;28;20546;-64
2021/11/13 02:25:56;;;;;;;16.08;8.77;;;3.20;99.90;;;;;;5036005;28;20523;-65
2021/11/13 02:28:25;;;;;;;11.80;9.50;;;3.20;99.90;;;;;;5035966;28;20201;-67
2021/11/13 02:30:53;;;;;;;14.18;8.52;;;3.20;99.90;;;;;;5035986;28;20287;-66
2021/11/13 02:33:19;;;;;;;12.48;7.35;;;3.20;99.90;;;;;;5036242;28;20198;-67
2021/11/13 02:35:46;;;;;;;17.13;9.57;;;3.10;99.90;;;;;;5036167;28;20178;-66
2021/11/13 02:38:23;;;;;;;18.20;10.15;;;3.20;99.90;;;;;;5035375;28;20610;-66
2021/11/13 02:40:54;;;;;;;16.50;12.55;;;3.20;99.90;;;;;;5036054;28;20252;-66
2021/11/13 02:43:21;;;;;;;11.65;8.85;;;3.20;99.90;;;;;;5035897;28;20166;-66
2021/11/13 02:45:47;;;;;;;12.88;10.77;;;3.20;99.90;;;;;;5035317;28;20285;-67
2021/11/13 02:48:14;;;;;;;16.17;10.30;;;3.20;99.90;;;;;;5035324;28;20674;-66
2021/11/13 02:50:42;;;;;;;13.23;8.45;;;3.20;99.90;;;;;;5035814;28;20178;-67
2021/11/13 02:53:17;;;;;;;11.52;8.65;;;3.20;99.90;;;;;;5035699;28;20255;-67
2021/11/13 02:55:42;;;;;;;10.35;7.60;;;3.10;99.90;;;;;;5018370;28;20545;-65
2021/11/13 02:58:08;;;;;;;13.43;8.90;;;3.10;99.90;;;;;;5035101;28;20198;-66
2021/11/13 03:00:35;;;;;;;13.07;11.40;;;3.10;99.90;;;;;;5035542;28;20205;-64
2021/11/13 03:03:00;;;;;;;12.50;11.25;;;3.00;99.90;;;;;;5035644;28;20704;-66
2021/11/13 03:05:29;;;;;;;12.70;8.70;;;3.00;99.90;;;;;;5035434;28;20292;-65
2021/11/13 03:07:57;;;;;;;17.70;10.48;;;3.00;99.90;;;;;;5034800;28;20182;-65
2021/11/13 03:10:26;;;;;;;11.70;9.00;;;3.00;99.90;;;;;;5035469;28;20190;-65
2021/11/13 03:12:52;;;;;;;13.68;11.15;;;3.00;99.90;;;;;;5035329;28;20170;-64
2021/11/13 03:15:20;;;;;;;10.00;9.00;;;3.10;99.90;;;;;;5035088;28;20273;-67
2021/11/13 03:17:46;;;;;;;11.63;8.60;;;3.10;99.90;;;;;;5034669;28;20304;-64
2021/11/13 03:20:16;;;;;;;19.77;10.55;;;3.10;99.90;;;;;;5035076;28;20220;-67
2021/11/13 03:22:42;;;;;;;13.02;8.95;;;3.10;99.90;;;;;;5035072;28;20241;-64
2021/11/13 03:25:17;;;;;;;8.63;7.72;;;3.10;99.90;;;;;;5034991;28;20198;-66
2021/11/13 03:27:46;;;;;;;13.57;8.77;;;3.20;99.90;;;;;;5014771;28;20191;-67
2021/11/13 03:30:13;;;;;;;8.68;7.07;;;3.20;99.90;;;;;;5015315;28;20301;-68
2021/11/13 03:32:39;;;;;;;12.02;7.88;;;3.30;99.90;;;;;;5015493;28;20179;-66
2021/11/13 03:35:06;;;;;;;11.48;8.13;;;3.20;99.90;;;;;;5015040;28;20193;-68
2021/11/13 03:37:32;;;;;;;12.13;9.68;;;3.30;99.90;;;;;;5014795;28;20239;-64
2021/11/13 03:39:58;;;;;;;13.55;8.88;;;3.20;99.90;;;;;;5015285;28;20266;-66
2021/11/13 03:42:27;;;;;;;9.30;8.35;;;3.20;99.90;;;;;;5015102;28;20543;-66
2021/11/13 03:44:53;;;;;;;9.90;7.13;;;3.10;99.90;;;;;;5014812;28;20290;-68
2021/11/13 03:47:19;;;;;;;9.95;8.85;;;3.10;99.90;;;;;;5014487;28;20174;-68
2021/11/13 03:49:44;;;;;;;10.73;7.60;;;3.00;99.90;;;;;;5014638;28;20178;-67
2021/11/13 03:52:10;;;;;;;16.63;9.80;;;3.00;99.90;;;;;;5015048;28;20209;-66
2021/11/13 03:54:37;;;;;;;8.70;6.77;;;3.00;99.90;;;;;;5014805;28;20175;-67
2021/11/13 03:57:04;;;;;;;12.77;8.35;;;2.90;99.90;;;;;;5014145;28;20229;-66
2021/11/13 03:59:30;;;;;;;13.73;9.00;;;2.90;99.90;;;;;;4996462;28;20659;-67
2021/11/13 04:01:56;;;;;;;10.00;7.53;;;2.90;99.90;;;;;;5014497;28;20265;-67
2021/11/13 04:04:22;;;;;;;13.07;10.05;;;2.90;99.90;;;;;;5014511;28;20190;-66
2021/11/13 04:06:47;;;;;;;10.27;7.30;;;2.80;99.90;;;;;;5014041;28;20166;-68
2021/11/13 04:09:13;;;;;;;13.97;10.43;;;2.80;99.90;;;;;;5014514;28;20520;-66
2021/11/13 04:11:39;;;;;;;9.43;5.97;;;2.70;99.90;;;;;;5014546;28;20175;-68
2021/11/13 04:14:04;;;;;;;9.53;7.47;;;2.70;99.90;;;;;;5014527;28;20237;-65
2021/11/13 04:16:30;;;;;;;11.83;8.60;;;2.70;99.90;;;;;;5013777;28;20182;-67
2021/11/13 04:18:56;;;;;;;11.13;9.20;;;2.70;99.90;;;;;;5014223;28;20194;-66
2021/11/13 04:21:21;;;;;;;14.70;10.80;;;2.70;99.90;;;;;;5014422;28;20270;-68
2021/11/13 04:23:47;;;;;;;6.70;6.10;;;2.60;99.90;;;;;;5014098;28;20175;-67
2021/11/13 04:26:13;;;;;;;9.03;7.90;;;2.60;99.90;;;;;;5021826;28;20605;-66
2021/11/13 04:28:39;;;;;;;10.90;8.00;;;2.60;99.90;;;;;;5033505;28;20190;-67
2021/11/13 04:31:04;;;;;;;14.33;6.83;;;2.50;99.90;;;;;;5033719;28;20336;-67
2021/11/13 04:33:33;;;;;;;11.50;7.47;;;2.50;99.90;;;;;;5033926;28;20398;-66
2021/11/13 04:38:25;;;;;;;8.27;7.57;;;2.50;99.90;;;;;;5033144;28;20557;-69
2021/11/13 04:40:51;;;;;;;11.63;8.07;;;2.50;99.90;;;;;;5033678;28;20622;-65
2021/11/13 04:43:17;;;;;;;11.00;6.97;;;2.40;99.90;;;;;;5033528;28;20170;-67
2021/11/13 04:45:42;;;;;;;9.53;5.80;;;2.40;99.90;;;;;;5033426;28;20511;-66
2021/11/13 04:48:09;;;;;;;6.70;5.70;;;2.40;99.90;;;;;;5033138;28;20193;-67
2021/11/13 04:50:36;;;;;;;6.30;5.13;;;2.50;99.90;;;;;;5033687;28;20170;-66
2021/11/13 04:53:03;;;;;;;7.93;6.35;;;2.50;99.90;;;;;;5033571;28;20257;-67
2021/11/13 04:55:29;;;;;;;7.60;6.10;;;2.50;99.90;;;;;;5033621;28;20532;-65
2021/11/13 04:57:55;;;;;;;7.37;6.60;;;2.50;99.90;;;;;;5032960;28;20193;-66
2021/11/13 05:00:23;;;;;;;9.20;7.63;;;2.50;99.90;;;;;;5033233;28;20411;-68
2021/11/13 05:02:49;;;;;;;12.15;6.63;;;2.60;99.90;;;;;;5033460;28;20824;-65
2021/11/13 05:05:16;;;;;;;8.60;7.80;;;2.60;99.90;;;;;;5033324;28;20284;-68
2021/11/13 05:07:41;;;;;;;7.50;6.63;;;2.60;99.90;;;;;;5032703;28;20424;-65
2021/11/13 05:10:08;;;;;;;6.73;5.70;;;2.70;99.90;;;;;;5033131;28;20177;-65
2021/11/13 05:12:34;;;;;;;7.88;6.15;;;2.70;99.90;;;;;;5015596;28;20201;-64
2021/11/13 05:14:59;;;;;;;7.40;6.00;;;2.70;99.90;;;;;;5032855;28;20190;-67
2021/11/13 05:17:26;;;;;;;6.37;5.40;;;2.80;99.90;;;;;;5032655;28;20220;-65
2021/11/13 05:19:52;;;;;;;16.95;8.75;;;2.80;99.90;;;;;;5033077;28;20170;-67
2021/11/13 05:22:17;;;;;;;6.83;6.23;;;2.80;99.90;;;;;;5033347;28;20630;-62
2021/11/13 05:24:43;;;;;;;5.83;5.30;;;2.90;99.90;;;;;;5032951;28;20224;-68
2021/11/13 05:27:10;;;;;;;7.13;6.50;;;2.90;99.90;;;;;;5032517;28;20185;-66
2021/11/13 05:29:36;;;;;;;10.20;7.43;;;3.00;99.90;;;;;;5033053;28;20197;-66
2021/11/13 05:32:02;;;;;;;9.43;7.70;;;3.00;99.90;;;;;;5032900;28;20170;-67
2021/11/13 05:34:28;;;;;;;9.85;7.68;;;3.00;99.90;;;;;;5033117;28;20413;-65
2021/11/13 05:36:53;;;;;;;6.30;5.47;;;3.00;99.90;;;;;;5032654;28;20173;-68
2021/11/13 05:39:19;;;;;;;10.70;8.10;;;3.00;99.90;;;;;;5032990;28;20190;-66
2021/11/13 05:41:45;;;;;;;11.03;8.30;;;3.00;99.90;;;;;;5032949;28;20311;-67
2021/11/13 05:44:11;;;;;;;9.70;7.30;;;3.10;99.90;;;;;;5032903;28;20408;-68
2021/11/13 05:46:37;;;;;;;8.43;7.63;;;3.00;99.90;;;;;;5032503;28;20210;-67
2021/11/13 05:49:02;;;;;;;6.47;5.87;;;3.10;99.90;;;;;;5032893;28;20654;-65
2021/11/13 05:51:28;;;;;;;16.25;8.35;;;3.10;99.90;;;;;;5033067;28;20208;-67
2021/11/13 05:53:54;;;;;;;8.30;7.50;;;3.00;99.90;;;;;;5032755;28;20243;-65
2021/11/13 05:56:20;;;;;;;12.93;7.00;;;3.10;99.90;;;;;;5032317;28;20419;-67
2021/11/13 05:58:45;;;;;;;7.77;6.67;;;3.00;99.90;;;;;;5032708;28;20436;-65
2021/11/13 06:01:11;;;;;;;10.27;7.97;;;3.10;99.90;;;;;;5032735;28;20166;-65
2021/11/13 06:03:37;;;;;;;9.40;7.20;;;3.10;99.90;;;;;;5032813;28;20170;-66
2021/11/13 06:06:02;;;;;;;11.03;7.50;;;3.10;99.90;;;;;;5032809;28;20609;-66
2021/11/13 06:08:28;;;;;;;9.33;8.07;;;3.20;99.90;;;;;;5032137;28;20190;-66
2021/11/13 06:10:54;;;;;;;10.97;8.00;;;3.20;99.90;;;;;;5032512;28;20166;-66
2021/11/13 06:13:19;;;;;;;8.87;5.80;;;3.20;99.90;;;;;;5032734;28;20178;-67
2021/11/13 06:15:45;;;;;;;10.73;8.13;;;3.20;99.90;;;;;;5032449;28;20662;-64
2021/11/13 06:18:11;;;;;;;10.23;6.70;;;3.20;99.90;;;;;;5031995;28;20205;-66
2021/11/13 06:20:37;;;;;;;10.90;7.23;;;3.30;99.90;;;;;;5032621;28;20174;-66
2021/11/13 06:23:03;;;;;;;7.80;7.00;;;3.30;99.90;;;;;;5036319;28;20185;-65
2021/11/13 06:25:30;;;;;;;7.77;7.07;;;3.40;99.90;;;;;;5035893;28;20567;-65
2021/11/13 06:27:55;;;;;;;10.23;7.15;;;3.40;99.90;;;;;;5036045;28;20439;-69
2021/11/13 06:30:21;;;;;;;9.80;6.50;;;3.40;99.90;;;;;;5036018;28;20534;-67
2021/11/13 06:32:50;;;;;;;9.73;8.83;;;3.40;99.90;;;;;;5036086;28;20237;-66
2021/11/13 06:35:17;;;;;;;6.88;6.38;;;3.40;99.90;;;;;;5034564;28;20178;-67
2021/11/13 06:37:43;;;;;;;11.60;9.13;;;3.40;99.90;;;;;;5035300;28;20198;-67
2021/11/13 06:40:11;;;;;;;7.15;6.55;;;3.30;99.90;;;;;;5035772;28;20170;-65
2021/11/13 06:42:37;;;;;;;11.73;7.75;;;3.40;99.90;;;;;;5036229;28;20265;-67
2021/11/13 06:45:08;;;;;;;7.50;6.93;;;3.40;99.90;;;;;;5035693;28;20545;-67
2021/11/13 06:47:34;;;;;;;7.20;6.22;;;3.40;99.90;;;;;;5035356;28;20258;-65
2021/11/13 06:49:59;;;;;;;8.53;7.23;;;3.40;99.90;;;;;;5035832;28;20241;-67
2021/11/13 06:52:25;;;;;;;9.00;6.93;;;3.50;99.90;;;;;;5035757;28;20245;-66
2021/11/13 06:54:51;;;;;;;6.73;6.03;;;3.40;99.90;;;;;;5035522;28;20174;-66
2021/11/13 06:57:17;;;;;;;9.67;8.70;;;3.50;99.90;;;;;;5035150;28;20184;-66
2021/11/13 06:59:42;;;;;;;9.43;7.27;;;3.60;99.90;;;;;;5035430;28;20499;-67
2021/11/13 07:02:08;;;;;;;8.63;7.90;;;3.50;99.90;;;;;;5035649;28;20182;-67
2021/11/13 07:04:34;;;;;;;5.93;5.40;;;3.50;99.90;;;;;;5035468;28;20654;-67
2021/11/13 07:07:00;;;;;;;6.70;6.13;;;3.50;99.90;;;;;;5034872;28;20173;-66
2021/11/13 07:09:26;;;;;;;10.17;8.50;;;3.60;99.90;;;;;;5035371;28;20540;-65
2021/11/13 07:11:51;;;;;;;7.33;5.87;;;3.60;99.90;;;;;;5035537;28;20673;-68
2021/11/13 07:14:17;;;;;;;9.37;7.60;;;3.70;99.90;;;;;;5035269;28;20170;-65
2021/11/13 07:16:43;;;;;;;9.13;7.87;;;3.70;99.90;;;;;;5034943;28;20170;-66
2021/11/13 07:19:09;;;;;;;10.77;7.95;;;3.80;99.90;;;;;;5035190;28;20209;-66
2021/11/13 07:21:35;;;;;;;8.33;7.53;;;3.80;99.90;;;;;;5035146;28;20178;-68
2021/11/13 07:24:01;;;;;;;9.30;7.47;;;3.80;99.90;;;;;;5035081;28;20761;-66
2021/11/13 07:26:28;;;;;;;11.73;8.20;;;3.90;99.90;;;;;;5034709;28;20207;-68
2021/11/13 07:29:00;;;;;;;9.32;8.35;;;3.90;99.90;;;;;;5035108;28;20429;-65
2021/11/13 07:31:26;;;;;;;9.05;6.63;;;4.00;99.90;;;;;;5034968;28;20267;-68
2021/11/13 07:33:53;;;;;;;7.37;6.67;;;4.00;99.90;;;;;;5032133;28;20197;-65
2021/11/13 07:36:20;;;;;;;7.68;6.00;;;4.20;99.90;;;;;;5016323;28;20435;-68
2021/11/13 07:38:46;;;;;;;9.07;8.27;;;4.30;99.90;;;;;;5034552;28;20232;-66
2021/11/13 07:41:12;;;;;;;7.10;6.22;;;4.40;99.90;;;;;;5034524;28;20174;-66
2021/11/13 07:43:38;;;;;;;8.30;6.47;;;4.50;99.90;;;;;;5034444;28;20193;-68
2021/11/13 07:46:05;;;;;;;8.23;5.65;;;4.50;99.90;;;;;;5034240;28;20371;-67
2021/11/13 07:48:31;;;;;;;8.32;7.60;;;4.60;99.90;;;;;;5033609;28;20289;-66
2021/11/13 07:50:57;;;;;;;7.07;5.93;;;4.70;99.90;;;;;;5033929;28;20206;-69
2021/11/13 07:53:23;;;;;;;8.83;6.70;;;4.80;99.90;;;;;;5034219;28;20566;-66
2021/11/13 07:55:49;;;;;;;8.38;5.63;;;4.80;99.90;;;;;;5016691;28;20901;-66
2021/11/13 07:58:18;;;;;;;9.45;5.85;;;5.00;99.90;;;;;;5033390;28;20566;-68
2021/11/13 08:00:46;;;;;;;7.55;6.40;;;5.10;99.90;;;;;;5033563;28;20696;-66
2021/11/13 08:03:11;;;;;;;7.90;6.40;;;5.20;99.90;;;;;;5012800;28;20972;-71
2021/11/13 08:05:37;;;;;;;9.43;6.30;;;5.30;99.90;;;;;;5030322;28;20209;-68
2021/11/13 08:08:03;;;;;;;5.68;5.13;;;5.40;99.90;;;;;;5030290;28;20190;-68
2021/11/13 08:10:32;;;;;;;6.70;5.87;;;5.50;99.90;;;;;;5032799;28;20251;-68
2021/11/13 08:12:58;;;;;;;8.88;6.53;;;5.60;99.90;;;;;;5033675;28;20547;-66
2021/11/13 08:15:24;;;;;;;6.47;5.77;;;5.70;99.90;;;;;;5033698;28;20649;-65
2021/11/13 08:17:49;;;;;;;8.70;5.60;;;5.80;99.90;;;;;;5033325;28;20714;-69
2021/11/13 08:20:15;;;;;;;7.87;7.07;;;6.10;99.90;;;;;;5033562;28;20649;-70
2021/11/13 08:22:42;;;;;;;7.23;5.50;;;6.20;99.90;;;;;;5033734;28;20175;-69
2021/11/13 08:25:10;;;;;;;8.18;5.40;;;6.60;99.90;;;;;;5033184;28;21015;-68
2021/11/13 08:27:37;;;;;;;10.80;6.03;;;7.10;99.90;;;;;;5033343;28;20204;-69
2021/11/13 08:30:05;;;;;;;6.20;4.50;;;7.50;99.90;;;;;;5033276;28;20219;-68
2021/11/13 08:32:31;;;;;;;5.63;5.07;;;8.10;99.90;;;;;;5032854;28;20166;-69
2021/11/13 08:34:57;;;;;;;6.17;5.57;;;8.60;99.90;;;;;;5033763;28;20212;-70
2021/11/13 08:37:22;;;;;;;5.80;5.30;;;9.30;99.90;;;;;;5033308;28;20179;-67
2021/11/13 08:39:48;;;;;;;5.23;4.73;;;10.00;99.90;;;;;;5033638;28;20563;-65
2021/11/13 08:42:14;;;;;;;5.43;4.90;;;10.90;99.90;;;;;;5032483;28;20300;-64
2021/11/13 08:44:45;;;;;;;7.20;5.10;;;11.70;99.90;;;;;;5032841;28;20182;-66
2021/11/13 08:47:13;;;;;;;5.87;5.30;;;12.30;99.90;;;;;;5032587;28;20754;-65
2021/11/13 08:49:42;;;;;;;5.60;5.00;;;12.60;99.90;;;;;;5033493;28;20797;-66
2021/11/13 08:52:10;;;;;;;6.00;4.90;;;12.70;99.90;;;;;;5033370;28;20435;-65
2021/11/13 08:54:36;;;;;;;5.50;5.00;;;12.40;99.90;;;;;;5033273;28;20491;-68
2021/11/13 08:57:03;;;;;;;5.60;4.43;;;12.00;99.90;;;;;;5030195;28;20408;-65
2021/11/13 08:59:30;;;;;;;6.30;5.40;;;11.60;99.90;;;;;;5031163;28;20433;-64
2021/11/13 09:01:59;;;;;;;5.90;4.90;;;11.20;99.90;;;;;;5033173;28;20394;-63
2021/11/13 09:04:25;;;;;;;7.93;6.03;;;10.80;99.90;;;;;;5033092;28;20381;-65
2021/11/13 09:06:51;;;;;;;6.40;5.80;;;10.20;99.90;;;;;;5032435;28;20417;-68
2021/11/13 09:09:16;;;;;;;6.83;5.97;;;9.70;99.90;;;;;;5032915;28;20217;-66
2021/11/13 09:11:43;;;;;;;6.77;5.70;;;9.30;99.90;;;;;;5032911;28;20197;-66
2021/11/13 09:14:14;;;;;;;5.10;4.60;;;8.90;99.90;;;;;;5032049;28;20173;-64
2021/11/13 09:16:40;;;;;;;6.28;5.00;;;8.70;99.90;;;;;;5032069;28;20209;-65
2021/11/13 09:19:07;;;;;;;8.25;4.90;;;8.30;99.90;;;;;;5033282;28;20228;-65
2021/11/13 09:21:34;;;;;;;7.55;4.80;;;8.20;99.90;;;;;;5032986;28;20177;-64
2021/11/13 09:24:02;;;;;;;8.40;5.53;;;8.00;99.90;;;;;;5031628;28;20657;-66
2021/11/13 09:26:28;;;;;;;6.35;5.03;;;7.90;99.90;;;;;;5032442;28;20203;-67
2021/11/13 09:28:56;;;;;;;5.38;4.88;;;7.80;99.90;;;;;;5032035;28;20250;-66
2021/11/13 09:31:22;;;;;;;4.03;3.60;;;7.90;99.90;;;;;;5049603;28;20537;-67
2021/11/13 09:33:48;;;;;;;6.25;5.65;;;7.90;99.90;;;;;;5035442;28;20641;-65
2021/11/13 09:36:14;;;;;;;8.37;5.27;;;8.00;99.90;;;;;;5048867;28;20189;-68
2021/11/13 09:38:42;;;;;;;6.70;5.90;;;8.10;99.90;;;;;;5031828;28;20201;-65
2021/11/13 09:41:09;;;;;;;6.43;5.82;;;8.20;99.90;;;;;;5029953;28;20495;-65
2021/11/13 09:43:35;;;;;;;8.23;4.70;;;8.30;99.90;;;;;;5030716;28;20224;-66
2021/11/13 09:46:05;;;;;;;7.70;5.07;;;8.40;99.90;;;;;;5030660;28;20551;-65
2021/11/13 09:48:32;;;;;;;7.80;5.25;;;8.60;99.90;;;;;;5030162;28;20190;-65
2021/11/13 09:50:57;;;;;;;7.25;5.05;;;8.70;99.90;;;;;;5031913;28;20272;-64
2021/11/13 09:53:25;;;;;;;5.30;4.80;;;8.80;99.90;;;;;;5029953;28;20258;-66
2021/11/13 09:55:53;;;;;;;5.57;5.18;;;9.00;99.90;;;;;;5030897;28;20239;-65
2021/11/13 09:58:19;;;;;;;4.25;3.95;;;9.10;99.90;;;;;;5036163;28;20186;-65
2021/11/13 10:00:45;;;;;;;5.05;4.65;;;9.20;99.90;;;;;;5036483;28;20185;-65
2021/11/13 10:03:18;;;;;;;4.50;4.10;;;9.20;99.90;;;;;;5034966;28;20178;-66
2021/11/13 10:05:49;;;;;;;4.10;3.80;;;9.30;99.90;;;;;;5035870;28;20201;-65
2021/11/13 10:08:17;;;;;;;4.97;4.55;;;9.50;99.90;;;;;;5035645;28;20194;-67
2021/11/13 10:10:43;;;;;;;4.75;4.00;;;9.60;99.90;;;;;;5036346;28;20169;-66
2021/11/13 10:13:29;;;;;;;5.20;4.80;;;9.70;99.90;;;;;;5036457;28;20170;-67
2021/11/13 10:16:01;;;;;;;5.90;4.07;;;9.90;99.90;;;;;;5028949;28;20210;-66
2021/11/13 10:18:30;;;;;;;6.50;5.90;;;10.00;99.90;;;;;;5036027;28;20277;-65
2021/11/13 10:21:05;;;;;;;5.55;4.97;;;9.80;99.90;;;;;;5036659;28;20170;-66
2021/11/13 10:23:39;;;;;;;7.95;4.88;;;9.70;99.90;;;;;;5036274;28;20238;-66
2021/11/13 10:26:13;;;;;;;6.93;6.13;;;9.40;99.90;;;;;;5036204;28;20194;-65
2021/11/13 10:29:00;;;;;;;5.90;5.30;;;9.30;99.90;;;;;;5036042;28;20194;-65
2021/11/13 10:31:28;;;;;;;7.20;5.00;;;9.10;99.90;;;;;;5036111;28;20575;-68
2021/11/13 10:33:56;;;;;;;6.15;5.55;;;8.90;99.90;;;;;;5035720;28;20687;-66
2021/11/13 10:36:27;;;;;;;6.95;5.95;;;8.70;99.90;;;;;;5035909;28;20174;-65
2021/11/13 10:39:06;;;;;;;8.30;6.72;;;8.60;99.90;;;;;;5036048;28;20221;-64
2021/11/13 10:41:45;;;;;;;6.47;4.40;;;8.50;99.90;;;;;;5036048;28;20270;-65
2021/11/13 10:44:11;;;;;;;5.53;4.82;;;8.60;99.90;;;;;;5035938;28;20232;-64
2021/11/13 10:46:41;;;;;;;7.57;6.17;;;8.60;99.90;;;;;;5035404;28;20212;-65
2021/11/13 10:49:07;;;;;;;7.82;5.60;;;8.60;99.90;;;;;;5035895;28;20429;-65
2021/11/13 10:51:35;;;;;;;6.90;5.90;;;8.60;99.90;;;;;;5035861;28;20640;-65
2021/11/13 10:54:15;;;;;;;7.15;6.25;;;8.60;99.90;;;;;;5035787;28;20177;-64
2021/11/13 10:56:46;;;;;;;9.02;6.40;;;8.60;99.90;;;;;;5035492;28;20164;-65
2021/11/13 10:59:13;;;;;;;5.72;5.13;;;8.70;99.90;;;;;;5035551;28;20200;-65
2021/11/13 11:01:45;;;;;;;6.00;5.50;;;8.70;99.90;;;;;;5035507;28;20170;-65
2021/11/13 11:04:13;;;;;;;8.80;7.88;;;8.70;99.90;;;;;;5035605;28;20181;-65
2021/11/13 11:06:43;;;;;;;6.00;5.40;;;8.80;99.90;;;;;;5034753;28;20203;-67
2021/11/13 11:09:19;;;;;;;6.68;6.00;;;8.90;99.90;;;;;;5035213;28;20722;-65
2021/11/13 11:11:45;;;;;;;5.75;5.10;;;9.00;99.90;;;;;;5035410;28;20178;-65
2021/11/13 11:14:15;;;;;;;9.55;6.22;;;9.00;99.90;;;;;;5035143;28;20166;-63
2021/11/13 11:16:43;;;;;;;5.75;5.25;;;9.00;99.90;;;;;;5034723;28;20550;-67
2021/11/13 11:19:14;;;;;;;6.95;6.25;;;9.00;99.90;;;;;;5034910;28;20206;-66
2021/11/13 11:22:15;;;;;;;6.22;5.32;;;9.10;99.90;;;;;;5034980;28;20174;-66
2021/11/13 11:24:43;;;;;;;6.35;5.35;;;9.10;99.90;;;;;;5032667;28;20187;-66
2021/11/13 11:27:23;;;;;;;6.70;4.80;;;9.10;99.90;;;;;;5034478;28;20177;-65
2021/11/13 11:30:02;;;;;;;5.70;4.75;;;9.10;99.90;;;;;;5035012;28;20669;-66
2021/11/13 11:32:43;;;;;;;6.35;5.75;;;9.20;99.90;;;;;;5035010;28;20182;-65
2021/11/13 11:35:19;;;;;;;6.88;6.03;;;9.20;99.90;;;;;;5035526;28;20653;-67
2021/11/13 11:37:48;;;;;;;5.40;5.00;;;9.20;99.90;;;;;;5034386;28;20204;-66
2021/11/13 11:40:21;;;;;;;6.22;5.00;;;9.30;99.90;;;;;;5034801;28;20178;-65
2021/11/13 11:42:50;;;;;;;6.80;5.15;;;9.30;99.90;;;;;;5034817;28;20261;-66
2021/11/13 11:45:25;;;;;;;6.93;6.22;;;9.40;99.90;;;;;;5034671;28;20720;-67
2021/11/13 11:47:53;;;;;;;9.57;8.07;;;9.40;99.90;;;;;;5034173;28;20194;-65
2021/11/13 11:50:25;;;;;;;9.13;5.82;;;9.40;99.90;;;;;;5034700;28;20177;-66
2021/11/13 11:53:12;;;;;;;7.70;6.90;;;9.30;99.90;;;;;;5034816;28;20261;-66
2021/11/13 11:55:41;;;;;;;8.25;7.45;;;9.40;99.90;;;;;;5033896;28;20678;-66
2021/11/13 11:58:12;;;;;;;7.65;6.53;;;9.30;99.90;;;;;;5032900;28;20194;-66
2021/11/13 12:00:39;;;;;;;6.72;6.07;;;9.30;99.90;;;;;;5034425;28;20634;-66
2021/11/13 12:03:05;;;;;;;8.30;6.05;;;9.40;99.90;;;;;;5034696;28;20634;-66
2021/11/13 12:05:36;;;;;;;6.68;6.18;;;9.20;99.90;;;;;;5034134;28;20720;-63
2021/11/13 12:08:23;;;;;;;9.07;6.60;;;9.20;99.90;;;;;;5033884;28;20540;-66
2021/11/13 12:10:51;;;;;;;6.70;5.57;;;9.10;99.90;;;;;;5034152;28;20224;-67
2021/11/13 12:13:25;;;;;;;6.88;5.68;;;9.00;99.90;;;;;;5034230;28;20173;-66
2021/11/13 12:15:56;;;;;;;7.72;6.43;;;9.00;99.90;;;;;;5033988;28;20192;-64
2021/11/13 12:18:24;;;;;;;6.03;5.43;;;9.00;99.90;;;;;;5033066;28;20230;-65
2021/11/13 12:20:51;;;;;;;6.45;4.75;;;8.90;99.90;;;;;;5033974;28;20205;-64
2021/11/13 12:23:28;;;;;;;5.45;4.95;;;8.90;99.90;;;;;;5034030;28;20186;-65
2021/11/13 12:26:08;;;;;;;6.32;5.82;;;8.90;99.90;;;;;;5033774;28;20189;-64
2021/11/13 12:28:48;;;;;;;6.97;6.15;;;8.90;99.90;;;;;;5033431;28;20194;-65
2021/11/13 12:31:22;;;;;;;7.75;6.20;;;8.90;99.90;;;;;;5033969;28;20634;-63
2021/11/13 12:33:55;;;;;;;8.57;6.30;;;8.90;99.90;;;;;;5033856;28;20181;-66
2021/11/13 12:36:23;;;;;;;8.60;6.32;;;9.00;99.90;;;;;;5033255;28;20650;-64
2021/11/13 12:38:57;;;;;;;6.97;6.32;;;8.90;99.90;;;;;;5033651;28;20198;-65
2021/11/13 12:41:37;;;;;;;8.30;6.50;;;9.00;99.90;;;;;;5033763;28;20178;-65
2021/11/13 12:44:27;;;;;;;7.88;6.53;;;9.10;99.90;;;;;;5033729;28;20166;-65
2021/11/13 12:47:03;;;;;;;7.22;6.47;;;9.00;99.90;;;;;;5026883;28;20307;-64
2021/11/13 12:49:36;;;;;;;7.05;6.28;;;9.10;99.90;;;;;;5033513;28;20305;-65
2021/11/13 12:52:17;;;;;;;4.90;4.32;;;9.10;99.90;;;;;;5033795;28;20554;-65
2021/11/13 12:54:57;;;;;;;10.50;7.03;;;9.10;99.90;;;;;;5016739;28;20178;-67
2021/11/13 12:57:28;;;;;;;7.30;6.22;;;9.20;99.90;;;;;;5032947;28;20193;-65